Time,TemperatureF,DewpointF,PressureIn,WindDirection,WindDirectionDegrees,WindSpeedMPH,WindSpeedGustMPH,Humidity,HourlyPrecipIn,Conditions,Clouds,dailyrainin,SoftwareType,DateUTC
2013-02-28 00:00:00,38.7,35.7,28.62,SW,225,0.0,0.0,89,0.00,CLR,,0.00,WeatherDisplay:10.37,2013-02-28 05:00:00,
2013-02-28 00:01:00,38.7,35.7,28.62,SW,225,0.0,0.0,89,0.00,CLR,,0.00,WeatherDisplay:10.37,2013-02-28 05:01:00,
2013-02-28 00:06:00,38.7,35.7,28.61,SW,225,0.0,0.0,89,0.00,CLR,,0.00,WeatherDisplay:10.37,2013-02-28 05:06:00,
2013-02-28 00:11:00,37.4,35.3,28.61,SW,225,0.0,0.0,92,0.00,CLR,,0.00,WeatherDisplay:10.37,2013-02-28 05:11:00,
2013-02-28 00:15:00,47.5,30.7,28.68,WNW,292,2.0,5.0,52,0.00,CLR,,0.00,WeatherDisplay:10.37,2013-02-28 05:15:00,
2013-02-28 00:16:00,37.0,34.9,28.61,SW,225,0.0,0.0,92,0.00,CLR,,0.00,WeatherDisplay:10.37,2013-02-28 05:16:00,
2013-02-28 00:21:00,36.7,35.1,28.61,SW,225,0.0,0.0,94,0.00,CLR,,0.00,WeatherDisplay:10.37,2013-02-28 05:21:00,
2013-02-28 00:26:00,36.5,34.9,28.61,SW,225,0.0,0.0,94,0.00,CLR,,0.00,WeatherDisplay:10.37,2013-02-28 05:26:00,
2013-02-28 00:30:00,48.7,30.4,28.67,NW,315,5.0,8.0,49,0.00,CLR,,0.00,WeatherDisplay:10.37,2013-02-28 05:30:00,
2013-02-28 00:31:00,36.5,35.2,28.61,SW,225,0.0,0.0,95,0.00,CLR,,0.00,WeatherDisplay:10.37,2013-02-28 05:31:00,
2013-02-28 00:36:00,36.5,35.7,28.61,SW,225,0.0,0.0,97,0.00,CLR,,0.00,WeatherDisplay:10.37,2013-02-28 05:36:00,
2013-02-28 00:41:00,36.7,36.2,28.61,SW,225,0.0,0.0,98,0.00,CLR,,0.00,WeatherDisplay:10.37,2013-02-28 05:41:00,
2013-02-28 00:45:00,48.7,30.4,28.67,NW,315,5.0,8.0,49,0.00,CLR,,0.00,WeatherDisplay:10.37,2013-02-28 05:45:00,
2013-02-28 00:46:00,36.7,36.2,28.61,SW,225,0.0,0.0,98,0.00,CLR,,0.00,WeatherDisplay:10.37,2013-02-28 05:46:00,
2013-02-28 00:51:00,36.5,36.0,28.61,SW,225,0.0,0.0,98,0.00,CLR,,0.00,WeatherDisplay:10.37,2013-02-28 05:51:00,
2013-02-28 00:56:00,36.3,35.8,28.61,SW,225,0.0,0.0,98,0.00,CLR,,0.00,WeatherDisplay:10.37,2013-02-28 05:56:00,
2013-02-28 01:00:00,49.1,30.7,28.67,SW,225,2.0,8.0,49,0.00,CLR,,0.00,WeatherDisplay:10.37,2013-02-28 06:00:00,
2013-02-28 01:01:00,35.8,35.5,28.61,SW,225,0.0,0.0,99,0.00,,,0.00,WeatherDisplay:10.37,2013-02-28 06:01:00,
2013-02-28 01:06:00,35.8,35.5,28.61,SW,225,0.0,0.0,99,0.00,,,0.00,WeatherDisplay:10.37,2013-02-28 06:06:00,
2013-02-28 01:11:00,35.1,34.8,28.61,SW,225,0.0,0.0,99,0.00,,,0.00,WeatherDisplay:10.37,2013-02-28 06:11:00,
2013-02-28 01:15:00,49.1,30.7,28.67,SW,225,2.0,4.0,49,0.00,CLR,,0.00,WeatherDisplay:10.37,2013-02-28 06:15:00,
2013-02-28 01:16:00,34.7,34.4,28.61,SW,225,0.0,0.0,99,0.00,,,0.00,WeatherDisplay:10.37,2013-02-28 06:16:00,
2013-02-28 01:21:00,34.3,34.1,28.61,SW,225,0.0,0.0,99,0.00,,,0.00,WeatherDisplay:10.37,2013-02-28 06:21:00,
2013-02-28 01:26:00,34.0,33.7,28.61,SW,225,0.0,0.0,99,0.00,,,0.00,WeatherDisplay:10.37,2013-02-28 06:26:00,
2013-02-28 01:30:00,48.2,31.4,28.66,West,270,1.0,4.0,52,0.00,CLR,,0.00,WeatherDisplay:10.37,2013-02-28 06:30:00,
2013-02-28 01:31:00,33.8,33.5,28.61,SW,225,0.0,0.0,99,0.00,,,0.00,WeatherDisplay:10.37,2013-02-28 06:31:00,
2013-02-28 01:36:00,33.4,33.2,28.61,SW,225,0.0,0.0,99,0.00,,,0.00,WeatherDisplay:10.37,2013-02-28 06:36:00,
2013-02-28 01:41:00,33.4,33.2,28.62,SW,225,0.0,0.0,99,0.00,,,0.00,WeatherDisplay:10.37,2013-02-28 06:41:00,
2013-02-28 01:45:00,48.2,31.4,28.66,West,270,1.0,2.0,52,0.00,CLR,,0.00,WeatherDisplay:10.37,2013-02-28 06:45:00,
2013-02-28 01:46:00,33.4,33.2,28.61,SW,225,0.0,0.0,99,0.00,,,0.00,WeatherDisplay:10.37,2013-02-28 06:46:00,
2013-02-28 01:51:00,33.1,32.8,28.61,SW,225,0.0,0.0,99,0.00,,,0.00,WeatherDisplay:10.37,2013-02-28 06:51:00,
2013-02-28 01:56:00,32.9,32.7,28.61,SW,225,0.0,0.0,99,0.00,,,0.00,WeatherDisplay:10.37,2013-02-28 06:56:00,
2013-02-28 02:00:00,48.4,32.0,28.66,NW,315,3.0,6.0,53,0.00,CLR,,0.00,WeatherDisplay:10.37,2013-02-28 07:00:00,
2013-02-28 02:01:00,32.7,32.5,28.61,SW,225,0.0,0.0,99,0.00,,,0.00,WeatherDisplay:10.37,2013-02-28 07:01:00,
2013-02-28 02:06:00,32.7,32.5,28.61,SW,225,0.0,0.0,99,0.00,,,0.00,WeatherDisplay:10.37,2013-02-28 07:06:00,
2013-02-28 02:11:00,32.4,32.1,28.61,SW,225,0.0,0.0,99,0.00,,,0.00,WeatherDisplay:10.37,2013-02-28 07:11:00,
2013-02-28 02:15:00,48.4,32.0,28.66,NW,315,3.0,6.0,53,0.00,CLR,,0.00,WeatherDisplay:10.37,2013-02-28 07:15:00,
2013-02-28 02:16:00,32.2,31.9,28.60,SW,225,0.0,0.0,99,0.00,,,0.00,WeatherDisplay:10.37,2013-02-28 07:16:00,
2013-02-28 02:21:00,32.0,31.8,28.61,SW,225,0.0,0.0,99,0.00,,,0.00,WeatherDisplay:10.37,2013-02-28 07:21:00,
2013-02-28 02:26:00,31.8,31.6,28.61,SW,225,0.0,0.0,99,0.00,,,0.00,WeatherDisplay:10.37,2013-02-28 07:26:00,
2013-02-28 02:30:00,50.4,32.9,28.67,NW,315,6.0,9.0,51,0.00,CLR,,0.00,WeatherDisplay:10.37,2013-02-28 07:30:00,
2013-02-28 02:31:00,31.5,31.2,28.61,SW,225,0.0,0.0,99,0.00,,,0.00,WeatherDisplay:10.37,2013-02-28 07:31:00,
2013-02-28 02:36:00,31.1,30.9,28.61,SW,225,0.0,0.0,99,0.00,,,0.00,WeatherDisplay:10.37,2013-02-28 07:36:00,
2013-02-28 02:41:00,30.9,30.7,28.61,SW,225,0.0,0.0,99,0.00,,,0.00,WeatherDisplay:10.37,2013-02-28 07:41:00,
2013-02-28 02:45:00,50.4,32.9,28.67,NW,315,6.0,9.0,51,0.00,CLR,,0.00,WeatherDisplay:10.37,2013-02-28 07:45:00,
2013-02-28 02:46:00,30.9,30.7,28.60,SW,225,0.0,0.0,99,0.00,,,0.00,WeatherDisplay:10.37,2013-02-28 07:46:00,
2013-02-28 02:51:00,30.7,30.5,28.60,SW,225,0.0,0.0,99,0.00,,,0.00,WeatherDisplay:10.37,2013-02-28 07:51:00,
2013-02-28 02:56:00,30.4,30.1,28.59,SW,225,0.0,0.0,99,0.00,,,0.00,WeatherDisplay:10.37,2013-02-28 07:56:00,
2013-02-28 03:00:00,53.1,34.4,28.67,SW,225,1.0,9.0,49,0.00,CLR,,0.00,WeatherDisplay:10.37,2013-02-28 08:00:00,
2013-02-28 03:01:00,30.2,30.0,28.59,SW,225,0.0,0.0,99,0.00,,,0.00,WeatherDisplay:10.37,2013-02-28 08:01:00,
2013-02-28 03:06:00,30.2,30.0,28.60,SW,225,0.0,0.0,99,0.00,,,0.00,WeatherDisplay:10.37,2013-02-28 08:06:00,
2013-02-28 03:11:00,30.2,30.0,28.59,SW,225,0.0,0.0,99,0.00,,,0.00,WeatherDisplay:10.37,2013-02-28 08:11:00,
2013-02-28 03:15:00,53.1,34.4,28.67,SW,225,1.0,5.0,49,0.00,CLR,,0.00,WeatherDisplay:10.37,2013-02-28 08:15:00,
2013-02-28 03:16:00,30.4,30.1,28.59,SW,225,0.0,0.0,99,0.00,,,0.00,WeatherDisplay:10.37,2013-02-28 08:16:00,
2013-02-28 03:21:00,30.0,29.8,28.60,SW,225,0.0,0.0,99,0.00,,,0.00,WeatherDisplay:10.37,2013-02-28 08:21:00,
2013-02-28 03:26:00,30.0,29.8,28.60,SW,225,0.0,0.0,99,0.00,,,0.00,WeatherDisplay:10.37,2013-02-28 08:26:00,
2013-02-28 03:30:00,52.2,34.6,28.67,West,270,1.0,5.0,51,0.00,CLR,,0.00,WeatherDisplay:10.37,2013-02-28 08:30:00,
2013-02-28 03:31:00,30.0,29.8,28.59,SW,225,0.0,0.0,99,0.00,,,0.00,WeatherDisplay:10.37,2013-02-28 08:31:00,
2013-02-28 03:36:00,30.0,29.8,28.59,SW,225,0.0,0.0,99,0.00,,,0.00,WeatherDisplay:10.37,2013-02-28 08:36:00,
2013-02-28 03:41:00,30.0,29.8,28.59,SW,225,0.0,0.0,99,0.00,,,0.00,WeatherDisplay:10.37,2013-02-28 08:41:00,
2013-02-28 03:45:00,52.2,34.6,28.67,West,270,1.0,2.0,51,0.00,CLR,,0.00,WeatherDisplay:10.37,2013-02-28 08:45:00,
2013-02-28 03:46:00,30.2,30.0,28.59,SW,225,0.0,0.0,99,0.00,,,0.00,WeatherDisplay:10.37,2013-02-28 08:46:00,
2013-02-28 03:51:00,30.4,30.1,28.60,SW,225,2.3,2.3,99,0.00,,,0.00,WeatherDisplay:10.37,2013-02-28 08:51:00,
2013-02-28 03:56:00,30.6,30.3,28.60,SW,225,0.0,0.0,99,0.00,,,0.00,WeatherDisplay:10.37,2013-02-28 08:56:00,
2013-02-28 04:00:00,53.1,32.8,28.68,NW,315,3.0,7.0,46,0.00,CLR,,0.00,WeatherDisplay:10.37,2013-02-28 09:00:00,
2013-02-28 04:01:00,30.6,30.3,28.60,SW,225,0.0,0.0,99,0.00,,,0.00,WeatherDisplay:10.37,2013-02-28 09:01:00,
2013-02-28 04:06:00,30.6,30.3,28.60,SW,225,0.0,0.0,99,0.00,,,0.00,WeatherDisplay:10.37,2013-02-28 09:06:00,
2013-02-28 04:11:00,30.7,30.5,28.60,SW,225,0.0,0.0,99,0.00,,,0.00,WeatherDisplay:10.37,2013-02-28 09:11:00,
2013-02-28 04:15:00,53.1,32.8,28.68,NW,315,3.0,7.0,46,0.00,CLR,,0.00,WeatherDisplay:10.37,2013-02-28 09:15:00,
2013-02-28 04:16:00,30.4,30.1,28.60,SW,225,0.0,0.0,99,0.00,,,0.00,WeatherDisplay:10.37,2013-02-28 09:16:00,
2013-02-28 04:21:00,30.0,29.8,28.60,SW,225,0.0,0.0,99,0.00,,,0.00,WeatherDisplay:10.37,2013-02-28 09:21:00,
2013-02-28 04:26:00,29.8,29.6,28.60,SW,225,0.0,0.0,99,0.00,,,0.00,WeatherDisplay:10.37,2013-02-28 09:26:00,
2013-02-28 04:30:00,48.0,32.2,28.69,NW,315,3.0,8.0,54,0.00,CLR,,0.00,WeatherDisplay:10.37,2013-02-28 09:30:00,
2013-02-28 04:31:00,29.5,29.2,28.61,SW,225,0.0,0.0,99,0.00,,,0.00,WeatherDisplay:10.37,2013-02-28 09:31:00,
2013-02-28 04:36:00,29.3,29.1,28.60,SW,225,0.0,0.0,99,0.00,,,0.00,WeatherDisplay:10.37,2013-02-28 09:36:00,
2013-02-28 04:41:00,29.3,29.1,28.60,SW,225,0.0,0.0,99,0.00,,,0.00,WeatherDisplay:10.37,2013-02-28 09:41:00,
2013-02-28 04:45:00,48.0,32.2,28.69,NW,315,3.0,8.0,54,0.00,CLR,,0.00,WeatherDisplay:10.37,2013-02-28 09:45:00,
2013-02-28 04:46:00,29.5,29.2,28.60,SW,225,0.0,0.0,99,0.00,,,0.00,WeatherDisplay:10.37,2013-02-28 09:46:00,
2013-02-28 04:51:00,29.7,29.4,28.61,SW,225,0.0,0.0,99,0.00,,,0.00,WeatherDisplay:10.37,2013-02-28 09:51:00,
2013-02-28 04:56:00,29.8,29.6,28.61,SW,225,0.0,0.0,99,0.00,,,0.00,WeatherDisplay:10.37,2013-02-28 09:56:00,
2013-02-28 05:00:00,46.2,31.4,28.70,NW,315,2.0,8.0,56,0.00,CLR,,0.00,WeatherDisplay:10.37,2013-02-28 10:00:00,
2013-02-28 05:01:00,30.0,29.8,28.61,SW,225,0.0,0.0,99,0.00,,,0.00,WeatherDisplay:10.37,2013-02-28 10:01:00,
2013-02-28 05:06:00,30.0,29.8,28.60,SW,225,0.0,0.0,99,0.00,,,0.00,WeatherDisplay:10.37,2013-02-28 10:06:00,
2013-02-28 05:11:00,30.4,30.1,28.61,SW,225,0.0,0.0,99,0.00,,,0.00,WeatherDisplay:10.37,2013-02-28 10:11:00,
2013-02-28 05:15:00,46.2,31.4,28.70,NW,315,2.0,5.0,56,0.00,CLR,,0.00,WeatherDisplay:10.37,2013-02-28 10:15:00,
2013-02-28 05:16:00,30.2,30.0,28.61,SW,225,0.0,0.0,99,0.00,,,0.00,WeatherDisplay:10.37,2013-02-28 10:16:00,
2013-02-28 05:21:00,30.2,30.0,28.61,SW,225,0.0,0.0,99,0.00,,,0.00,WeatherDisplay:10.37,2013-02-28 10:21:00,
2013-02-28 05:26:00,30.0,29.8,28.61,SW,225,0.0,0.0,99,0.00,,,0.00,WeatherDisplay:10.37,2013-02-28 10:26:00,
2013-02-28 05:31:00,29.8,29.6,28.61,SW,225,0.0,0.0,99,0.00,,,0.00,WeatherDisplay:10.37,2013-02-28 10:31:00,
2013-02-28 05:36:00,29.8,29.6,28.61,SW,225,0.0,0.0,99,0.00,,,0.00,WeatherDisplay:10.37,2013-02-28 10:36:00,
2013-02-28 05:41:00,30.0,29.8,28.61,SW,225,0.0,0.0,99,0.00,,,0.00,WeatherDisplay:10.37,2013-02-28 10:41:00,
2013-02-28 05:46:00,29.8,29.6,28.61,SW,225,0.0,0.0,99,0.00,,,0.00,WeatherDisplay:10.37,2013-02-28 10:46:00,
2013-02-28 05:51:00,29.8,29.6,28.61,SW,225,0.0,0.0,99,0.00,,,0.00,WeatherDisplay:10.37,2013-02-28 10:51:00,
2013-02-28 05:56:00,29.5,29.2,28.61,SW,225,0.0,0.0,99,0.00,,,0.00,WeatherDisplay:10.37,2013-02-28 10:56:00,
2013-02-28 06:01:00,29.1,28.9,28.62,SW,225,0.0,0.0,99,0.00,,,0.00,WeatherDisplay:10.37,2013-02-28 11:01:00,
2013-02-28 06:06:00,28.8,28.5,28.61,SW,225,0.0,0.0,99,0.00,,,0.00,WeatherDisplay:10.37,2013-02-28 11:06:00,
2013-02-28 06:11:00,28.6,28.3,28.62,SW,225,0.0,0.0,99,0.00,,,0.00,WeatherDisplay:10.37,2013-02-28 11:11:00,
2013-02-28 06:16:00,28.4,28.2,28.62,SW,225,0.0,0.0,99,0.00,,,0.00,WeatherDisplay:10.37,2013-02-28 11:16:00,
2013-02-28 06:21:00,28.4,28.2,28.62,SW,225,0.0,0.0,99,0.00,,,0.00,WeatherDisplay:10.37,2013-02-28 11:21:00,
2013-02-28 06:26:00,28.2,28.0,28.62,SW,225,0.0,0.0,99,0.00,,,0.00,WeatherDisplay:10.37,2013-02-28 11:26:00,
2013-02-28 06:31:00,27.9,27.6,28.62,SW,225,0.0,0.0,99,0.00,,,0.00,WeatherDisplay:10.37,2013-02-28 11:31:00,
2013-02-28 06:36:00,27.9,27.6,28.62,SW,225,0.0,0.0,99,0.00,,,0.00,WeatherDisplay:10.37,2013-02-28 11:36:00,
2013-02-28 06:41:00,27.9,27.6,28.62,SW,225,0.0,0.0,99,0.00,,,0.00,WeatherDisplay:10.37,2013-02-28 11:41:00,
2013-02-28 06:46:00,27.9,27.6,28.62,SW,225,0.0,0.0,99,0.00,,,0.00,WeatherDisplay:10.37,2013-02-28 11:46:00,
2013-02-28 06:51:00,27.9,27.6,28.63,SW,225,0.0,0.0,99,0.00,,,0.00,WeatherDisplay:10.37,2013-02-28 11:51:00,
2013-02-28 06:56:00,27.9,27.6,28.63,SW,225,0.0,0.0,99,0.00,,,0.00,WeatherDisplay:10.37,2013-02-28 11:56:00,
2013-02-28 07:01:00,27.9,27.6,28.63,SW,225,0.0,0.0,99,0.00,,,0.00,WeatherDisplay:10.37,2013-02-28 12:01:00,
2013-02-28 07:06:00,28.2,28.0,28.63,SW,225,0.0,0.0,99,0.00,,,0.00,WeatherDisplay:10.37,2013-02-28 12:06:00,
2013-02-28 07:11:00,28.4,28.2,28.63,SW,225,0.0,0.0,99,0.00,,,0.00,WeatherDisplay:10.37,2013-02-28 12:11:00,
2013-02-28 07:16:00,28.6,28.3,28.63,SW,225,0.0,0.0,99,0.00,,,0.00,WeatherDisplay:10.37,2013-02-28 12:16:00,
2013-02-28 07:21:00,29.1,28.9,28.63,SW,225,0.0,0.0,99,0.00,,,0.00,WeatherDisplay:10.37,2013-02-28 12:21:00,
2013-02-28 07:26:00,29.3,29.1,28.64,SW,225,0.0,0.0,99,0.00,,,0.00,WeatherDisplay:10.37,2013-02-28 12:26:00,
2013-02-28 07:31:00,29.7,29.4,28.64,SW,225,0.0,0.0,99,0.00,,,0.00,WeatherDisplay:10.37,2013-02-28 12:31:00,
2013-02-28 07:36:00,30.0,29.8,28.64,SW,225,0.0,0.0,99,0.00,,,0.00,WeatherDisplay:10.37,2013-02-28 12:36:00,
2013-02-28 07:41:00,30.6,30.3,28.64,SW,225,0.0,0.0,99,0.00,,,0.00,WeatherDisplay:10.37,2013-02-28 12:41:00,
2013-02-28 07:46:00,31.1,30.9,28.65,SW,225,0.0,0.0,99,0.00,,,0.00,WeatherDisplay:10.37,2013-02-28 12:46:00,
2013-02-28 07:51:00,31.6,31.4,28.65,SW,225,0.0,0.0,99,0.00,,,0.00,WeatherDisplay:10.37,2013-02-28 12:51:00,
2013-02-28 07:56:00,32.2,31.9,28.65,SW,225,1.1,0.0,99,0.00,,,0.00,WeatherDisplay:10.37,2013-02-28 12:56:00,
2013-02-28 08:01:00,32.5,32.3,28.65,SW,225,0.0,0.0,99,0.00,,,0.00,WeatherDisplay:10.37,2013-02-28 13:01:00,
2013-02-28 08:06:00,33.4,33.2,28.65,West,270,1.1,0.0,99,0.00,,,0.00,WeatherDisplay:10.37,2013-02-28 13:06:00,
2013-02-28 08:11:00,34.2,33.9,28.66,SW,225,1.1,0.0,99,0.00,,,0.00,WeatherDisplay:10.37,2013-02-28 13:11:00,
2013-02-28 08:16:00,34.7,34.4,28.66,SW,225,2.3,0.0,99,0.00,,,0.00,WeatherDisplay:10.37,2013-02-28 13:16:00,
2013-02-28 08:21:00,35.4,35.2,28.66,West,270,0.0,0.0,99,0.00,,,0.00,WeatherDisplay:10.37,2013-02-28 13:21:00,
2013-02-28 17:22:00,45.1,30.8,28.70,NE,45,6.9,6.9,57,0.00,CLR,,0.00,WeatherDisplay:10.37,2013-02-28 22:22:00,
2013-02-28 17:27:00,44.4,30.6,28.71,NW,315,5.8,5.8,58,0.00,CLR,,0.00,WeatherDisplay:10.37,2013-02-28 22:27:00,
2013-02-28 17:32:00,44.1,30.6,28.71,SW,225,3.5,3.5,59,0.00,CLR,,0.00,WeatherDisplay:10.37,2013-02-28 22:32:00,
2013-02-28 17:37:00,43.9,30.5,28.72,NW,315,6.9,6.9,59,0.00,CLR,,0.00,WeatherDisplay:10.37,2013-02-28 22:37:00,
2013-02-28 17:42:00,43.5,30.1,28.72,West,270,5.8,5.8,59,0.00,CLR,,0.00,WeatherDisplay:10.37,2013-02-28 22:42:00,
2013-02-28 17:47:00,43.2,30.2,28.73,NW,315,4.6,4.6,60,0.00,CLR,,0.00,WeatherDisplay:10.37,2013-02-28 22:47:00,
2013-02-28 17:52:00,42.8,30.3,28.72,NW,315,3.5,3.5,61,0.00,CLR,,0.00,WeatherDisplay:10.37,2013-02-28 22:52:00,
2013-02-28 17:57:00,42.4,29.9,28.72,West,270,5.8,5.8,61,0.00,CLR,,0.00,WeatherDisplay:10.37,2013-02-28 22:57:00,
2013-02-28 18:02:00,42.3,30.2,28.72,West,270,3.5,3.5,62,0.00,CLR,,0.00,WeatherDisplay:10.37,2013-02-28 23:02:00,
2013-02-28 18:07:00,41.9,30.2,28.73,West,270,5.8,5.8,63,0.00,CLR,,0.00,WeatherDisplay:10.37,2013-02-28 23:07:00,
2013-02-28 18:12:00,41.5,30.3,28.73,NW,315,5.8,5.8,64,0.00,CLR,,0.00,WeatherDisplay:10.37,2013-02-28 23:12:00,
2013-02-28 18:17:00,41.4,30.5,28.73,NW,315,7.6,7.6,65,0.00,CLR,,0.00,WeatherDisplay:10.37,2013-02-28 23:17:00,
2013-02-28 18:22:00,41.0,30.5,28.73,NW,315,3.5,3.5,66,0.00,CLR,,0.00,WeatherDisplay:10.37,2013-02-28 23:22:00,
2013-02-28 18:27:00,40.6,30.2,28.74,NW,315,4.6,4.6,66,0.00,CLR,,0.00,WeatherDisplay:10.37,2013-02-28 23:27:00,
2013-02-28 18:32:00,40.5,30.0,28.74,WNW,292,8.1,8.1,66,0.00,CLR,,0.00,WeatherDisplay:10.37,2013-02-28 23:32:00,
2013-02-28 18:37:00,40.1,30.0,28.73,NW,315,2.3,3.1,67,0.00,CLR,,0.00,WeatherDisplay:10.37,2013-02-28 23:37:00,
2013-02-28 18:42:00,39.7,30.0,28.74,NW,315,4.6,4.6,68,0.00,CLR,,0.00,WeatherDisplay:10.37,2013-02-28 23:42:00,
2013-02-28 18:47:00,39.7,30.4,28.75,SW,225,3.5,3.5,69,0.00,CLR,,0.00,WeatherDisplay:10.37,2013-02-28 23:47:00,
2013-02-28 18:52:00,39.4,30.1,28.75,NW,315,3.5,3.5,69,0.00,CLR,,0.00,WeatherDisplay:10.37,2013-02-28 23:52:00,
2013-02-28 18:57:00,39.2,29.5,28.75,SW,225,5.8,5.8,68,0.00,CLR,,0.00,WeatherDisplay:10.37,2013-02-28 23:57:00,
2013-02-28 19:02:00,39.2,29.5,28.75,NW,315,4.6,4.6,68,0.00,CLR,,0.00,WeatherDisplay:10.37,2013-03-01 00:02:00,
2013-02-28 19:07:00,38.8,29.5,28.75,NW,315,2.3,2.3,69,0.00,CLR,,0.00,WeatherDisplay:10.37,2013-03-01 00:07:00,
2013-02-28 19:12:00,38.5,29.2,28.75,SW,225,2.3,0.0,69,0.00,CLR,,0.00,WeatherDisplay:10.37,2013-03-01 00:12:00,
2013-02-28 19:17:00,38.1,29.2,28.76,SW,225,0.0,0.0,70,0.00,CLR,,0.00,WeatherDisplay:10.37,2013-03-01 00:17:00,
2013-02-28 19:22:00,37.9,29.0,28.75,SW,225,2.3,2.3,70,0.00,CLR,,0.00,WeatherDisplay:10.37,2013-03-01 00:22:00,
2013-02-28 19:27:00,37.4,28.9,28.75,NW,315,2.3,3.1,71,0.00,CLR,,0.00,WeatherDisplay:10.37,2013-03-01 00:27:00,
2013-02-28 19:32:00,37.6,29.0,28.75,SW,225,3.5,3.5,71,0.00,CLR,,0.00,WeatherDisplay:10.37,2013-03-01 00:32:00,
2013-02-28 19:37:00,37.2,28.7,28.75,NW,315,1.1,0.0,71,0.00,CLR,,0.00,WeatherDisplay:10.37,2013-03-01 00:37:00,
2013-02-28 19:42:00,36.9,28.7,28.75,NW,315,2.3,2.3,72,0.00,CLR,,0.00,WeatherDisplay:10.37,2013-03-01 00:42:00,
2013-02-28 19:47:00,36.5,28.3,28.75,NW,315,0.0,0.0,72,0.00,CLR,,0.00,WeatherDisplay:10.37,2013-03-01 00:47:00,
2013-02-28 19:52:00,36.1,28.3,28.75,NW,315,3.5,0.0,73,0.00,CLR,,0.00,WeatherDisplay:10.37,2013-03-01 00:52:00,
2013-02-28 19:57:00,35.8,28.0,28.75,NW,315,0.0,0.0,73,0.00,CLR,,0.00,WeatherDisplay:10.37,2013-03-01 00:57:00,
2013-02-28 20:02:00,35.6,27.8,28.74,NW,315,0.0,0.0,73,0.00,CLR,,0.00,WeatherDisplay:10.37,2013-03-01 01:02:00,
2013-02-28 20:07:00,34.5,27.4,28.75,NW,315,0.0,0.0,75,0.00,CLR,,0.00,WeatherDisplay:10.37,2013-03-01 01:07:00,
2013-02-28 20:12:00,34.2,27.7,28.74,SW,225,0.0,0.7,77,0.00,CLR,,0.00,WeatherDisplay:10.37,2013-03-01 01:12:00,
2013-02-28 20:17:00,34.5,28.1,28.75,NW,315,1.1,0.0,77,0.00,CLR,,0.00,WeatherDisplay:10.37,2013-03-01 01:17:00,
2013-02-28 20:22:00,34.5,28.1,28.75,NW,315,2.3,0.0,77,0.00,CLR,,0.00,WeatherDisplay:10.37,2013-03-01 01:22:00,
2013-02-28 20:27:00,34.7,28.2,28.74,SW,225,3.5,3.5,77,0.00,CLR,,0.00,WeatherDisplay:10.37,2013-03-01 01:27:00,
2013-02-28 20:32:00,35.1,28.3,28.74,SW,225,1.1,0.0,76,0.00,CLR,,0.00,WeatherDisplay:10.37,2013-03-01 01:32:00,
2013-02-28 20:37:00,35.4,28.3,28.74,SW,225,0.0,0.0,75,0.00,CLR,,0.00,WeatherDisplay:10.37,2013-03-01 01:37:00,
2013-02-28 20:43:00,35.6,28.1,28.75,SW,225,3.5,0.0,74,0.00,CLR,,0.00,WeatherDisplay:10.37,2013-03-01 01:43:00,
2013-02-28 20:48:00,35.6,27.8,28.75,SW,225,0.0,0.0,73,0.00,CLR,,0.00,WeatherDisplay:10.37,2013-03-01 01:48:00,
2013-02-28 20:53:00,35.4,27.6,28.75,SW,225,1.1,0.0,73,0.00,CLR,,0.00,WeatherDisplay:10.37,2013-03-01 01:53:00,
2013-02-28 20:58:00,35.1,27.3,28.75,SW,225,0.0,0.0,73,0.00,CLR,,0.00,WeatherDisplay:10.37,2013-03-01 01:58:00,
2013-02-28 21:03:00,34.7,27.3,28.75,SW,225,0.0,0.0,74,0.00,CLR,,0.00,WeatherDisplay:10.37,2013-03-01 02:03:00,
2013-02-28 21:08:00,34.5,27.4,28.75,SW,225,0.0,0.0,75,0.00,CLR,,0.00,WeatherDisplay:10.37,2013-03-01 02:08:00,
2013-02-28 21:13:00,33.6,26.9,28.75,SW,225,0.0,0.0,76,0.00,CLR,,0.00,WeatherDisplay:10.37,2013-03-01 02:13:00,
2013-02-28 21:18:00,33.1,27.0,28.75,SW,225,0.0,0.0,78,0.00,CLR,,0.00,WeatherDisplay:10.37,2013-03-01 02:18:00,
2013-02-28 21:23:00,32.7,27.2,28.75,SW,225,3.5,0.0,80,0.00,CLR,,0.00,WeatherDisplay:10.37,2013-03-01 02:23:00,
2013-02-28 21:28:00,32.7,27.2,28.75,SW,225,0.0,0.0,80,0.00,CLR,,0.00,WeatherDisplay:10.37,2013-03-01 02:28:00,
2013-02-28 21:33:00,32.5,27.4,28.75,SW,225,0.0,0.0,81,0.00,CLR,,0.00,WeatherDisplay:10.37,2013-03-01 02:33:00,
2013-02-28 21:38:00,32.7,27.5,28.75,SW,225,0.0,0.0,81,0.00,CLR,,0.00,WeatherDisplay:10.37,2013-03-01 02:38:00,
2013-02-28 21:43:00,33.1,27.6,28.75,SW,225,0.0,0.0,80,0.00,CLR,,0.00,WeatherDisplay:10.37,2013-03-01 02:43:00,
2013-02-28 21:48:00,33.3,27.8,28.75,SW,225,0.0,0.0,80,0.00,CLR,,0.00,WeatherDisplay:10.37,2013-03-01 02:48:00,
2013-02-28 21:53:00,33.4,27.9,28.75,SW,225,2.3,0.0,80,0.00,CLR,,0.00,WeatherDisplay:10.37,2013-03-01 02:53:00,
2013-02-28 21:58:00,33.3,27.8,28.75,SW,225,0.0,0.0,80,0.00,CLR,,0.00,WeatherDisplay:10.37,2013-03-01 02:58:00,
2013-02-28 22:03:00,33.1,27.9,28.75,SW,225,1.1,0.0,81,0.00,CLR,,0.00,WeatherDisplay:10.37,2013-03-01 03:03:00,
2013-02-28 22:08:00,32.4,27.5,28.76,SW,225,1.1,0.0,82,0.00,CLR,,0.00,WeatherDisplay:10.37,2013-03-01 03:08:00,
2013-02-28 22:13:00,32.2,27.6,28.76,SW,225,1.1,0.0,83,0.00,CLR,,0.00,WeatherDisplay:10.37,2013-03-01 03:13:00,
2013-02-28 22:18:00,32.0,27.7,28.76,SW,225,0.0,0.0,84,0.00,CLR,,0.00,WeatherDisplay:10.37,2013-03-01 03:18:00,
2013-02-28 22:23:00,32.0,27.7,28.76,SW,225,0.0,0.0,84,0.00,CLR,,0.00,WeatherDisplay:10.37,2013-03-01 03:23:00,
2013-02-28 22:28:00,32.4,28.1,28.76,SW,225,0.0,0.0,84,0.00,CLR,,0.00,WeatherDisplay:10.37,2013-03-01 03:28:00,
2013-02-28 22:33:00,32.7,28.7,28.76,West,270,3.5,3.5,85,0.00,CLR,,0.00,WeatherDisplay:10.37,2013-03-01 03:33:00,
2013-02-28 22:38:00,33.4,28.8,28.76,NW,315,1.1,1.1,83,0.00,CLR,,0.00,WeatherDisplay:10.37,2013-03-01 03:38:00,
2013-02-28 22:43:00,34.2,28.9,28.76,NW,315,2.3,2.3,81,0.00,CLR,,0.00,WeatherDisplay:10.37,2013-03-01 03:43:00,
2013-02-28 22:48:00,35.1,28.9,28.76,NW,315,5.8,5.8,78,0.00,CLR,,0.00,WeatherDisplay:10.37,2013-03-01 03:48:00,
2013-02-28 22:53:00,35.4,28.9,28.76,NW,315,3.5,3.5,77,0.00,CLR,,0.00,WeatherDisplay:10.37,2013-03-01 03:53:00,
2013-02-28 22:58:00,35.8,28.6,28.76,NW,315,5.8,5.8,75,0.00,CLR,,0.00,WeatherDisplay:10.37,2013-03-01 03:58:00,
2013-02-28 23:03:00,35.8,28.6,28.75,NW,315,4.6,4.6,75,0.00,CLR,,0.00,WeatherDisplay:10.37,2013-03-01 04:03:00,
2013-02-28 23:08:00,36.0,28.5,28.75,NE,45,4.6,4.6,74,0.00,CLR,,0.00,WeatherDisplay:10.37,2013-03-01 04:08:00,
2013-02-28 23:13:00,36.1,29.0,28.75,SW,225,3.5,3.5,75,0.00,CLR,,0.00,WeatherDisplay:10.37,2013-03-01 04:13:00,
2013-02-28 23:18:00,36.0,28.8,28.75,SW,225,3.5,0.0,75,0.00,CLR,,0.00,WeatherDisplay:10.37,2013-03-01 04:18:00,
2013-02-28 23:23:00,35.8,28.6,28.75,South,180,3.5,3.5,75,0.00,CLR,,0.00,WeatherDisplay:10.37,2013-03-01 04:23:00,
2013-02-28 23:28:00,36.0,28.5,28.75,NW,315,5.8,5.8,74,0.00,CLR,,0.00,WeatherDisplay:10.37,2013-03-01 04:28:00,
2013-02-28 23:33:00,36.3,28.5,28.75,NW,315,8.1,8.1,73,0.00,CLR,,0.00,WeatherDisplay:10.37,2013-03-01 04:33:00,
2013-02-28 23:38:00,36.3,28.5,28.75,NW,315,3.5,0.0,73,0.00,CLR,,0.00,WeatherDisplay:10.37,2013-03-01 04:38:00,
2013-02-28 23:43:00,36.3,28.5,28.76,NW,315,3.5,3.5,73,0.00,CLR,,0.00,WeatherDisplay:10.37,2013-03-01 04:43:00,
2013-02-28 23:48:00,36.3,28.5,28.76,NW,315,3.5,4.5,73,0.00,CLR,,0.00,WeatherDisplay:10.37,2013-03-01 04:48:00,
2013-02-28 23:53:00,36.5,28.7,28.75,NW,315,6.9,6.9,73,0.00,CLR,,0.00,WeatherDisplay:10.37,2013-03-01 04:53:00,
2013-02-28 23:58:00,36.3,28.5,28.76,NW,315,4.6,4.6,73,0.00,CLR,,0.00,WeatherDisplay:10.37,2013-03-01 04:58:00,